Observations for ALICANTE EL ALTET, Spain (LEAL)

LEAL 112230Z 21008KT CAVOK 10/08 Q1020 NOSIG
LEAL 112200Z 22006KT CAVOK 10/08 Q1020 NOSIG
LEAL 112130Z VRB03KT CAVOK 11/08 Q1020 NOSIG
LEAL 112100Z 23004KT CAVOK 10/08 Q1020 NOSIG
LEAL 112030Z 24005KT CAVOK 10/08 Q1020 NOSIG
LEAL 112000Z 26003KT 230V300 CAVOK 10/08 Q1020 NOSIG
LEAL 111930Z 24004KT CAVOK 11/08 Q1020 NOSIG
LEAL 111900Z 26006KT CAVOK 12/09 Q1020 NOSIG
LEAL 111830Z 25006KT CAVOK 12/10 Q1020 NOSIG
LEAL 111800Z 25003KT CAVOK 11/09 Q1020 NOSIG
LEAL 111730Z 24004KT CAVOK 12/11 Q1020 NOSIG
LEAL 111700Z 22003KT CAVOK 14/11 Q1020 NOSIG
LEAL 111630Z 20003KT 150V240 CAVOK 15/12 Q1020 NOSIG
LEAL 111600Z 19005KT 150V230 CAVOK 16/12 Q1020 NOSIG
LEAL 111530Z 19005KT 120V250 CAVOK 17/12 Q1020 NOSIG
LEAL 111500Z 19005KT 140V250 CAVOK 17/12 Q1020 NOSIG
LEAL 111430Z 22008KT 190V260 CAVOK 17/09 Q1020 NOSIG
LEAL 111400Z 23007KT 180V290 CAVOK 17/09 Q1021 NOSIG
LEAL 111330Z 22008KT 180V260 CAVOK 18/09 Q1021 NOSIG
LEAL 111300Z 23008KT 170V260 9999 FEW012 17/09 Q1021 NOSIG  
LEAL 111230Z 22008KT 190V250 9999 FEW012 17/09 Q1022 NOSIG  
LEAL 111200Z 22007KT 160V260 9999 FEW012 16/10 Q1022 NOSIG  
LEAL 111130Z 22007KT 170V270 9999 FEW012 16/10 Q1023 NOSIG  
LEAL 111100Z 23006KT 200V280 9999 FEW012 16/10 Q1023 NOSIG  
LEAL 111030Z 24004KT 200V280 9999 FEW012 15/09 Q1024 NOSIG  
LEAL 111000Z 22004KT 180V250 CAVOK 14/09 Q1024 NOSIG
LEAL 110930Z VRB02KT CAVOK 13/09 Q1024 NOSIG
LEAL 110900Z 24003KT CAVOK 11/08 Q1024 NOSIG
LEAL 110830Z 25003KT 220V280 CAVOK 10/08 Q1024 NOSIG
LEAL 110800Z 24004KT CAVOK 08/06 Q1023 NOSIG
LEAL 110730Z 28003KT 260V320 CAVOK 06/05 Q1023 NOSIG
LEAL 110700Z 26005KT CAVOK 07/06 Q1023 NOSIG
LEAL 110630Z 24006KT CAVOK 07/06 Q1023 NOSIG
LEAL 110600Z 23004KT CAVOK 07/06 Q1023 NOSIG
LEAL 110530Z 23004KT CAVOK 07/06 Q1023 NOSIG
LEAL 110500Z 26005KT CAVOK 08/07 Q1023 NOSIG
LEAL 110430Z 26005KT CAVOK 09/07 Q1024 NOSIG
LEAL 110400Z 27006KT CAVOK 09/07 Q1024 NOSIG
LEAL 110330Z 27005KT CAVOK 09/07 Q1024 NOSIG
LEAL 110300Z 27005KT CAVOK 08/07 Q1024 NOSIG
LEAL 110230Z 28004KT CAVOK 08/07 Q1025 NOSIG
LEAL 110200Z VRB01KT CAVOK 09/08 Q1025 NOSIG
LEAL 110130Z 36003KT CAVOK 11/09 Q1025 NOSIG
LEAL 110100Z VRB01KT CAVOK 09/08 Q1025 NOSIG
LEAL 110030Z 30003KT CAVOK 09/08 Q1025 NOSIG
LEAL 110000Z 31004KT CAVOK 10/08 Q1026 NOSIG
LEAL 102330Z 32005KT CAVOK 10/08 Q1026 NOSIG
LEAL 102300Z 31005KT 280V340 CAVOK 12/08 Q1026 NOSIG
LEAL 102230Z 31004KT 250V340 CAVOK 11/09 Q1026 NOSIG
LEAL 102200Z 31004KT 280V350 CAVOK 11/08 Q1026 NOSIG